createdAt,value
2023-05-19T00:02:09.407Z,2.40
2023-05-19T00:07:32.664Z,2.45
2023-05-19T00:12:53.907Z,2.22
2023-05-19T00:18:16.595Z,2.92
2023-05-19T00:23:37.626Z,2.50
2023-05-19T00:28:58.525Z,3.10
2023-05-19T00:34:20.284Z,2.60
2023-05-19T00:39:41.529Z,3.08
2023-05-19T00:45:02.474Z,2.97
2023-05-19T00:50:24.439Z,2.83
2023-05-19T00:55:46.448Z,3.20
2023-05-19T01:01:08.556Z,2.78
2023-05-19T01:06:29.751Z,2.92
2023-05-19T01:11:51.009Z,3.10
2023-05-19T01:17:17.766Z,3.00
2023-05-19T01:22:49.077Z,3.03
2023-05-19T01:33:41.263Z,2.67
2023-05-19T01:39:02.848Z,2.45
2023-05-19T01:44:24.258Z,2.40
2023-05-19T01:49:45.229Z,2.50
2023-05-19T01:55:06.890Z,2.70
2023-05-19T02:00:48.841Z,2.28
2023-05-19T02:06:28.076Z,2.50
2023-05-19T02:12:02.502Z,3.47
2023-05-19T02:17:27.127Z,2.67
2023-05-19T02:22:49.122Z,2.88
2023-05-19T02:28:09.885Z,2.90
2023-05-19T02:33:31.541Z,3.60
2023-05-19T02:38:52.629Z,2.90
2023-05-19T02:44:13.523Z,2.88
2023-05-19T02:49:37.934Z,2.80
2023-05-19T02:54:58.812Z,2.45
2023-05-19T03:00:20.194Z,2.70
2023-05-19T03:05:43.421Z,2.95
2023-05-19T03:11:04.507Z,2.65
2023-05-19T03:16:25.476Z,2.83
2023-05-19T03:21:47.536Z,2.42
2023-05-19T03:27:08.243Z,2.47
2023-05-19T03:32:29.598Z,2.70
2023-05-19T03:37:51.068Z,2.83
2023-05-19T03:43:13.193Z,2.60
2023-05-19T03:48:41.360Z,2.85
2023-05-19T03:54:22.613Z,3.28
2023-05-19T03:59:45.415Z,2.60
2023-05-19T04:05:07.286Z,2.33
2023-05-19T04:10:28.400Z,2.80
2023-05-19T04:15:49.670Z,2.15
2023-05-19T04:21:10.877Z,2.40
2023-05-19T04:26:34.120Z,2.88
2023-05-19T04:31:56.203Z,2.60
2023-05-19T04:37:18.031Z,2.50
2023-05-19T04:42:41.616Z,2.40
2023-05-19T04:48:04.551Z,2.35
2023-05-19T04:53:25.789Z,2.97
2023-05-19T04:58:48.947Z,2.47
2023-05-19T05:04:10.708Z,2.22
2023-05-19T05:09:32.009Z,2.17
2023-05-19T05:14:55.592Z,1.95
2023-05-19T05:20:17.172Z,2.45
2023-05-19T05:25:38.658Z,2.17
2023-05-19T05:30:59.825Z,2.10
2023-05-19T05:36:21.368Z,2.20
2023-05-19T05:41:42.686Z,2.10
2023-05-19T05:47:06.677Z,2.20
2023-05-19T05:52:30.456Z,2.72
2023-05-19T05:57:52.786Z,2.92
2023-05-19T06:03:14.906Z,2.10
2023-05-19T06:08:36.061Z,1.58
2023-05-19T06:13:58.509Z,2.05
2023-05-19T06:19:45.591Z,1.80
2023-05-19T06:25:09.034Z,2.40
2023-05-19T06:30:30.840Z,1.90
2023-05-19T06:36:12.233Z,1.60
2023-05-19T06:41:36.128Z,3.78
2023-05-19T06:46:57.489Z,2.00
2023-05-19T06:52:18.654Z,1.65
2023-05-19T06:57:40.176Z,1.90
2023-05-19T07:03:02.034Z,1.30
2023-05-19T07:08:23.834Z,1.42
2023-05-19T07:13:45.081Z,1.42
2023-05-19T07:19:09.611Z,1.30
2023-05-19T07:24:31.658Z,1.50
2023-05-19T07:29:52.844Z,1.85
2023-05-19T07:35:14.210Z,1.73
2023-05-19T07:40:35.387Z,1.75
2023-05-19T07:45:56.667Z,1.80
2023-05-19T07:51:17.544Z,1.75
2023-05-19T07:56:38.622Z,2.00
2023-05-19T08:01:59.870Z,2.20
2023-05-19T08:07:20.828Z,1.50
2023-05-19T08:12:41.709Z,1.40
2023-05-19T08:18:03.309Z,1.50
2023-05-19T08:23:24.495Z,2.10
2023-05-19T08:28:45.224Z,1.85
2023-05-19T08:34:06.206Z,2.00
2023-05-19T08:39:27.451Z,1.95
2023-05-19T08:44:48.448Z,1.20
2023-05-19T08:50:13.479Z,1.85
2023-05-19T08:55:44.626Z,1.48
2023-05-19T09:01:06.856Z,1.83
2023-05-19T09:06:28.133Z,2.00
2023-05-19T09:11:49.300Z,1.50
2023-05-19T09:17:10.687Z,1.55
2023-05-19T09:22:35.972Z,1.30
2023-05-19T09:27:57.358Z,1.80
2023-05-19T09:33:20.106Z,1.30
2023-05-19T09:38:41.584Z,1.58
2023-05-19T09:44:02.899Z,1.48
2023-05-19T09:49:25.466Z,1.48
2023-05-19T09:54:48.729Z,1.60
2023-05-19T10:00:19.989Z,1.88
2023-05-19T10:05:42.108Z,2.13
2023-05-19T10:11:03.604Z,1.63
2023-05-19T10:16:26.836Z,2.03
2023-05-19T10:21:47.816Z,2.50
2023-05-19T10:27:12.052Z,1.67
2023-05-19T10:32:34.413Z,1.80
2023-05-19T10:38:14.483Z,1.23
2023-05-19T10:43:52.099Z,1.88
2023-05-19T10:49:23.622Z,1.38
2023-05-19T10:54:47.416Z,2.22
2023-05-19T11:00:28.622Z,1.85
2023-05-19T11:05:52.368Z,1.30
2023-05-19T11:11:17.604Z,1.90
2023-05-19T11:16:41.849Z,1.73
2023-05-19T11:22:13.132Z,1.60
2023-05-19T11:27:38.365Z,1.33
2023-05-19T11:33:00.032Z,1.73
2023-05-19T11:38:22.149Z,1.60
2023-05-19T11:43:43.108Z,1.25
2023-05-19T11:49:05.797Z,1.52
2023-05-19T11:54:37.448Z,1.48
2023-05-19T12:00:02.643Z,0.90
2023-05-19T12:05:27.224Z,1.73
2023-05-19T12:10:52.433Z,1.30
2023-05-19T12:16:13.865Z,1.30
2023-05-19T12:21:35.869Z,1.52
2023-05-19T12:27:28.890Z,1.85
2023-05-19T12:32:52.023Z,2.05
2023-05-19T12:38:14.546Z,1.55
2023-05-19T12:43:39.565Z,1.48
2023-05-19T12:49:01.253Z,1.30
2023-05-19T12:54:22.345Z,1.75
2023-05-19T12:59:43.989Z,1.35
2023-05-19T13:05:05.786Z,1.15
2023-05-19T13:10:28.306Z,1.27
2023-05-19T13:15:49.490Z,1.50
2023-05-19T13:21:11.291Z,1.10
2023-05-19T13:26:32.164Z,1.38
2023-05-19T13:31:52.819Z,1.17
2023-05-19T13:37:13.820Z,2.45
2023-05-19T13:42:35.387Z,1.58
2023-05-19T13:47:56.740Z,1.95
2023-05-19T13:53:17.936Z,1.95
2023-05-19T13:58:38.847Z,1.98
2023-05-19T14:04:00.900Z,1.50
2023-05-19T14:09:22.064Z,1.40
2023-05-19T14:14:43.536Z,1.50
2023-05-19T14:20:04.828Z,1.58
2023-05-19T14:25:25.762Z,1.55
2023-05-19T14:30:46.525Z,2.17
2023-05-19T14:36:09.108Z,1.80
2023-05-19T14:41:30.556Z,1.60
2023-05-19T14:46:51.720Z,1.75
2023-05-19T14:52:12.762Z,1.75
2023-05-19T14:57:33.429Z,1.40
2023-05-19T15:02:54.880Z,3.05
2023-05-19T15:08:16.079Z,2.30
2023-05-19T15:13:37.245Z,1.83
2023-05-19T15:18:58.217Z,2.30
2023-05-19T15:24:19.325Z,2.20
2023-05-19T15:29:40.656Z,1.83
2023-05-19T15:35:01.374Z,2.35
2023-05-19T15:40:22.401Z,1.50
2023-05-19T15:45:43.164Z,2.45
2023-05-19T15:51:04.259Z,2.03
2023-05-19T15:56:24.973Z,2.78
2023-05-19T16:01:46.166Z,2.45
2023-05-19T16:07:07.342Z,1.77
2023-05-19T16:12:29.571Z,1.90
2023-05-19T16:17:50.432Z,2.13
2023-05-19T16:23:11.321Z,1.83
2023-05-19T16:28:32.673Z,1.88
2023-05-19T16:33:54.070Z,9.27
2023-05-19T16:39:15.750Z,8.30
2023-05-19T16:44:36.731Z,12.70
2023-05-19T16:49:57.494Z,4.28
2023-05-19T16:55:20.128Z,2.58
2023-05-19T17:00:41.220Z,8.43
2023-05-19T17:06:02.032Z,6.30
2023-05-19T17:11:23.035Z,8.70
2023-05-19T17:16:44.521Z,4.47
2023-05-19T17:22:05.583Z,3.67
2023-05-19T17:27:26.450Z,3.95
2023-05-19T17:32:47.747Z,3.78
2023-05-19T17:38:08.873Z,3.30
2023-05-19T17:43:29.893Z,3.05
2023-05-19T17:48:50.877Z,2.95
2023-05-19T17:54:12.372Z,3.75
2023-05-19T17:59:33.866Z,3.20
2023-05-19T18:04:55.740Z,2.90
2023-05-19T18:10:17.607Z,3.25
2023-05-19T18:15:38.576Z,3.38
2023-05-19T18:21:00.180Z,3.70
2023-05-19T18:26:21.603Z,3.00
2023-05-19T18:31:44.584Z,3.95
2023-05-19T18:37:05.626Z,3.60
2023-05-19T18:42:26.687Z,3.60
2023-05-19T18:47:47.876Z,3.80
2023-05-19T18:53:08.739Z,3.67
2023-05-19T18:58:29.582Z,4.35
2023-05-19T19:03:50.671Z,6.20
2023-05-19T19:09:11.921Z,5.03
2023-05-19T19:14:32.484Z,5.85
2023-05-19T19:19:53.528Z,4.70
2023-05-19T19:25:14.971Z,5.18
2023-05-19T19:30:36.577Z,5.53
2023-05-19T19:35:57.825Z,4.95
2023-05-19T19:41:20.006Z,5.05
2023-05-19T19:46:41.290Z,4.20
2023-05-19T19:52:02.494Z,5.10
2023-05-19T19:57:24.545Z,5.32
2023-05-19T20:03:02.971Z,4.45
2023-05-19T20:08:26.373Z,6.18
2023-05-19T20:13:47.673Z,6.82
2023-05-19T20:19:09.365Z,6.03
2023-05-19T20:24:30.303Z,5.85
2023-05-19T20:29:51.109Z,5.85
2023-05-19T20:35:12.675Z,7.03
2023-05-19T20:40:33.876Z,6.90
2023-05-19T20:45:58.018Z,6.05
2023-05-19T20:51:19.689Z,6.75
2023-05-19T20:56:42.280Z,7.97
2023-05-19T21:02:03.558Z,7.13
2023-05-19T21:07:25.551Z,7.35
2023-05-19T21:12:46.880Z,6.55
2023-05-19T21:18:08.481Z,7.00
2023-05-19T21:23:29.257Z,7.20
2023-05-19T21:28:50.144Z,7.07
2023-05-19T21:34:11.030Z,7.85
2023-05-19T21:39:31.913Z,7.68
2023-05-19T21:44:52.691Z,7.70
2023-05-19T21:50:17.632Z,6.95
2023-05-19T21:55:39.448Z,8.75
2023-05-19T22:01:00.604Z,8.00
2023-05-19T22:06:22.082Z,7.00
2023-05-19T22:11:43.417Z,6.28
2023-05-19T22:17:04.399Z,6.63
2023-05-19T22:22:25.583Z,7.90
2023-05-19T22:27:46.473Z,9.18
2023-05-19T22:33:08.705Z,8.80
2023-05-19T22:38:29.828Z,8.68
2023-05-19T22:43:50.898Z,8.23
2023-05-19T22:49:12.057Z,7.35
2023-05-19T22:54:35.315Z,8.02
2023-05-19T22:59:56.508Z,7.13
2023-05-19T23:05:17.445Z,8.98
2023-05-19T23:10:38.477Z,7.68
2023-05-19T23:15:59.691Z,9.13
2023-05-19T23:21:20.594Z,9.55
2023-05-19T23:26:44.615Z,11.10
2023-05-19T23:32:05.802Z,9.77
2023-05-19T23:37:26.711Z,9.27
2023-05-19T23:42:47.456Z,8.65
2023-05-19T23:48:08.268Z,8.98
2023-05-19T23:53:29.511Z,9.35
2023-05-19T23:58:50.563Z,10.15
